Data for 01/14/2005

Time Sea-Level Adjusted Pressure Absolute Pressure Temperature Relative Humidity Dew Point   
(mb) (inHg) (mb) (inHg) (C) (F) (%) (C) (F)
00:05 1018 30.06 847 25.01 -17.6 0.3 84 -19.6 -3.4
00:10 1018 30.06 847 25.01 -17.5 0.5 84 -19.5 -3.2
00:15 1018 30.06 847 25.01 -17.4 0.6 84 -19.5 -3.1
00:20 1018 30.06 847 25.01 -17.5 0.6 85 -19.4 -2.9
00:25 1018 30.06 847 25.01 -17.5 0.5 85 -19.4 -3
00:30 1018 30.06 847 25.01 -17.5 0.5 84 -19.6 -3.2
00:35 1018 30.06 847 25.01 -17.7 0.2 85 -19.6 -3.3
00:40 1018 30.06 847 25.01 -17.8 0.1 85 -19.7 -3.5
00:45 1018 30.06 847 25.01 -17.7 0.1 85 -19.7 -3.5
00:50 1018 30.06 847 25.01 -18 -0.4 85 -19.9 -3.9
00:55 1018 30.06 847 25.01 -18.1 -0.5 87 -19.8 -3.6
01:00 1018 30.06 847 25.01 -17.8 -0 85 -19.7 -3.4
01:05 1018 30.06 847 25.01 -17.8 0.1 86 -19.5 -3.2
01:10 1018 30.06 847 25.01 -17.7 0.1 86 -19.6 -3.2
01:15 1018 30.06 847 25.01 -17.7 0.1 86 -19.5 -3.2
01:20 1018 30.06 847 25.01 -17.7 0.1 87 -19.4 -2.9
01:25 1018 30.06 847 25.01 -17.4 0.8 85 -19.3 -2.7
01:30 1018 30.06 847 25.01 -17.2 1.1 85 -19.1 -2.4
01:35 1018 30.06 847 25.01 -17.2 1.1 85 -19.1 -2.4
01:40 1018 30.06 847 25.01 -17.2 1.1 85 -19.2 -2.6
01:45 1018 30.06 847 25.01 -17.4 0.8 85 -19.4 -2.9
01:50 1018 30.06 847 25.01 -17.4 0.8 86 -19.2 -2.6
01:55 1018 30.06 847 25.01 -17.3 0.9 84 -19.3 -2.8
02:00 1018 30.06 847 25.01 -17.6 0.3 87 -19.3 -2.8
02:05 1018 30.06 847 25.01 -17.5 0.4 86 -19.4 -2.9
02:10 1018 30.06 847 25.01 -17.6 0.4 85 -19.5 -3
02:15 1018 30.06 847 25.01 -17.6 0.4 86 -19.3 -2.8
02:20 1018 30.06 847 25.01 -17.4 0.7 86 -19.2 -2.6
02:25 1018 30.06 847 25.01 -17.3 0.9 86 -19.1 -2.4
02:30 1018 30.06 847 25.01 -17.1 1.1 86 -19 -2.2
02:35 1018 30.06 847 25.01 -16.9 1.5 85 -19 -2.1
02:40 1018 30.06 847 25.01 -16.9 1.6 84 -19 -2.1
02:45 1018 30.06 848 25.04 -17 1.3 84 -19.1 -2.3
02:50 1018 30.06 848 25.04 -17.1 1.2 85 -19.1 -2.4
02:55 1018 30.06 848 25.04 -17.1 1.2 86 -19 -2.1
03:00 1018 30.06 848 25.04 -17.1 1.3 86 -18.9 -1.9
03:05 1018 30.06 848 25.04 -16.9 1.6 85 -18.8 -1.9
03:10 1018 30.06 848 25.04 -16.7 2 83 -18.9 -2
03:15 1019 30.09 848 25.04 -16.8 1.8 83 -19 -2.2
03:20 1019 30.09 848 25.04 -16.8 1.7 83 -19.1 -2.3
03:25 1019 30.09 848 25.04 -17.3 0.9 87 -19 -2.3
03:30 1019 30.09 848 25.04 -17.1 1.1 86 -19 -2.2
03:35 1019 30.09 848 25.04 -16.9 1.5 85 -18.9 -2
03:40 1019 30.09 848 25.04 -16.9 1.6 84 -19 -2.2
03:45 1019 30.09 848 25.04 -17 1.5 84 -19 -2.2
03:50 1019 30.09 848 25.04 -17.2 1.1 85 -19.1 -2.4
03:55 1019 30.09 848 25.04 -17.2 1.1 85 -19.2 -2.5
04:00 1019 30.09 848 25.04 -17.3 0.9 85 -19.3 -2.7
04:05 1019 30.09 848 25.04 -17.4 0.7 84 -19.4 -3
04:10 1019 30.09 848 25.04 -17.5 0.4 86 -19.4 -2.9
04:15 1019 30.09 848 25.04 -17.6 0.2 85 -19.6 -3.2
04:20 1019 30.09 848 25.04 -17.6 0.4 84 -19.6 -3.3
04:25 1019 30.09 849 25.07 -17.6 0.3 84 -19.6 -3.3
04:30 1019 30.09 849 25.07 -17.6 0.4 83 -19.8 -3.6
04:35 1019 30.09 849 25.07 -17.6 0.2 83 -19.9 -3.8
04:40 1019 30.09 849 25.07 -17.7 0.2 83 -19.9 -3.8
04:45 1019 30.09 849 25.07 -17.8 0 83 -20 -4.1
04:50 1020 30.12 849 25.07 -17.8 -0 83 -20 -4
04:55 1020 30.12 849 25.07 -17.8 -0 83 -20 -4
05:00 1020 30.12 849 25.07 -17.8 -0.1 84 -20 -4
05:05 1020 30.12 849 25.07 -17.7 0.2 83 -19.8 -3.7
05:10 1020 30.12 849 25.07 -17.6 0.2 82 -20 -3.9
05:15 1020 30.12 849 25.07 -17.8 -0 83 -20 -4
05:20 1020 30.12 849 25.07 -17.6 0.4 83 -19.8 -3.6
05:25 1020 30.12 849 25.07 -17.4 0.6 82 -19.8 -3.6
05:30 1020 30.12 849 25.07 -17.7 0.2 84 -19.8 -3.7
05:35 1020 30.12 849 25.07 -17.7 0.2 82 -20 -3.9
05:40 1020 30.12 849 25.07 -17.5 0.5 82 -19.9 -3.9
05:45 1020 30.12 849 25.07 -17.5 0.5 82 -19.8 -3.7
05:50 1020 30.12 849 25.07 -17.5 0.5 82 -19.9 -3.8
05:55 1020 30.12 849 25.07 -17.6 0.4 83 -19.8 -3.7
06:00 1020 30.12 850 25.1 -17.6 0.4 82 -20 -3.9
06:05 1020 30.12 849 25.07 -17.5 0.4 81 -20 -4
06:10 1020 30.12 849 25.07 -17.9 -0.1 83 -20.1 -4.1
06:15 1020 30.12 849 25.07 -17.9 -0.1 83 -20.1 -4.1
06:20 1020 30.12 849 25.07 -17.7 0.1 83 -20 -4
06:25 1020 30.12 850 25.1 -17.6 0.4 83 -19.9 -3.8
06:30 1020 30.12 850 25.1 -17.6 0.4 84 -19.7 -3.5
06:35 1021 30.15 850 25.1 -17.5 0.6 83 -19.7 -3.4
06:40 1021 30.15 850 25.1 -17.3 0.9 83 -19.5 -3.1
06:45 1021 30.15 850 25.1 -17.3 0.8 82 -19.7 -3.4
06:50 1021 30.15 850 25.1 -17.6 0.4 83 -19.9 -3.8
06:55 1021 30.15 850 25.1 -17.8 -0 83 -20 -4
07:00 1021 30.15 850 25.1 -17.9 -0.3 83 -20.1 -4.2
07:05 1021 30.15 850 25.1 -18 -0.3 83 -20.2 -4.4
07:10 1021 30.15 850 25.1 -18.2 -0.7 85 -20.1 -4.2
07:15 1021 30.15 850 25.1 -18 -0.4 85 -20 -4
07:20 1021 30.15 850 25.1 -18.2 -0.7 84 -20.2 -4.4
07:25 1021 30.15 850 25.1 -18.4 -1 84 -20.4 -4.8
07:30 1021 30.15 850 25.1 -18.4 -1.1 86 -20.2 -4.4
07:35 1021 30.15 850 25.1 -18 -0.4 84 -20.2 -4.3
07:40 1021 30.15 850 25.1 -18 -0.4 84 -20.1 -4.1
07:45 1021 30.15 850 25.1 -18 -0.5 85 -20 -4
07:50 1021 30.15 850 25.1 -18 -0.4 84 -20.1 -4.3
07:55 1021 30.15 851 25.13 -18.1 -0.6 84 -20.2 -4.4
08:00 1021 30.15 851 25.13 -18.1 -0.6 86 -19.9 -3.9
08:05 1021 30.15 851 25.13 -17.9 -0.2 83 -20.1 -4.1
08:10 1021 30.15 851 25.13 -18 -0.5 84 -20.1 -4.1
08:15 1021 30.15 851 25.13 -18 -0.4 84 -20.1 -4.1
08:20 1021 30.15 851 25.13 -17.8 0 84 -19.9 -3.7
08:25 1021 30.15 851 25.13 -17.6 0.4 83 -19.9 -3.7
08:30 1022 30.18 851 25.13 -17.5 0.5 82 -19.9 -3.8
08:35 1022 30.18 851 25.13 -17.6 0.3 82 -20 -4.1
08:40 1022 30.18 851 25.13 -17.6 0.3 82 -19.9 -3.9
08:45 1022 30.18 851 25.13 -17.6 0.3 81 -20.1 -4.2
08:50 1022 30.18 851 25.13 -17.7 0.1 81 -20.2 -4.4
08:55 1022 30.18 851 25.13 -17.9 -0.2 82 -20.3 -4.5
09:00 1022 30.18 851 25.13 -17.9 -0.1 81 -20.3 -4.6
09:05 1022 30.18 851 25.13 -18 -0.4 82 -20.4 -4.7
09:10 1022 30.18 851 25.13 -17.9 -0.2 81 -20.3 -4.6
09:15 1022 30.18 851 25.13 -18 -0.4 79 -20.8 -5.4
09:20 1022 30.18 851 25.13 -18.4 -1.2 81 -20.9 -5.7
09:25 1022 30.18 852 25.16 -18.4 -1.1 82 -20.8 -5.4
09:30 1023 30.21 852 25.16 -18.2 -0.8 81 -20.7 -5.2
09:35 1023 30.21 852 25.16 -18.1 -0.5 80 -20.7 -5.2
09:40 1023 30.21 852 25.16 -17.9 -0.2 80 -20.5 -4.9
09:45 1023 30.21 852 25.16 -17.7 0.2 79 -20.5 -4.9
09:50 1023 30.21 852 25.16 -17.8 -0 78 -20.7 -5.3
09:55 1023 30.21 852 25.16 -18.2 -0.7 81 -20.7 -5.3
10:00 1023 30.21 852 25.16 -17.8 -0.1 78 -20.8 -5.5
10:05 1023 30.21 852 25.16 -18.1 -0.5 81 -20.6 -5.2
10:10 1023 30.21 852 25.16 -17.8 0 80 -20.5 -4.9
10:15 1023 30.21 852 25.16 -17.3 0.8 78 -20.4 -4.6
10:20 1023 30.21 852 25.16 -17.1 1.2 75 -20.5 -5
10:25 1023 30.21 852 25.16 -17.8 -0 78 -20.8 -5.4
10:30 1023 30.21 852 25.16 -17.8 -0.1 78 -20.7 -5.3
10:35 1023 30.21 852 25.16 -17.7 0.1 78 -20.7 -5.3
10:40 1023 30.21 852 25.16 -17.4 0.8 78 -20.4 -4.7
10:45 1023 30.21 852 25.16 -17.1 1.3 75 -20.4 -4.8
10:50 1023 30.21 852 25.16 -16.9 1.7 75 -20.3 -4.6
10:55 1023 30.21 852 25.16 -17 1.4 77 -20.1 -4.2
11:00 1023 30.21 852 25.16 -16.8 1.8 76 -20.1 -4.2
11:05 1023 30.21 852 25.16 -16.4 2.5 75 -19.8 -3.7
11:10 1023 30.21 852 25.16 -16.4 2.6 75 -19.9 -3.8
11:15 1023 30.21 853 25.19 -16.3 2.8 75 -19.8 -3.6
11:20 1023 30.21 853 25.19 -16 3.2 72 -19.9 -3.9
11:25 1023 30.21 853 25.19 -16.4 2.5 74 -19.9 -3.9
11:30 1023 30.21 853 25.19 -16.4 2.5 73 -20.1 -4.2
11:35 1023 30.21 853 25.19 -16.2 2.9 72 -20.2 -4.3
11:40 1023 30.21 853 25.19 -16.1 3 69 -20.5 -4.9
11:45 1023 30.21 853 25.19 -16.7 2 74 -20.3 -4.6
11:50 1023 30.21 853 25.19 -17 1.4 76 -20.2 -4.4
11:55 1023 30.21 853 25.19 -16.4 2.4 74 -20 -4.1
12:00 1023 30.21 852 25.16 -16.9 1.5 75 -20.3 -4.6
12:05 1023 30.21 852 25.16 -16.4 2.6 73 -20.2 -4.3
12:10 1023 30.21 852 25.16 -16.2 2.9 71 -20.2 -4.4
12:15 1023 30.21 852 25.16 -16.2 2.8 71 -20.3 -4.5
12:20 1023 30.21 852 25.16 -16.5 2.4 73 -20.3 -4.6
12:25 1023 30.21 852 25.16 -16.7 1.9 74 -20.3 -4.5
12:30 1023 30.21 852 25.16 -16.7 2 74 -20.3 -4.6
12:35 1023 30.21 852 25.16 -16.5 2.3 72 -20.4 -4.7
12:40 1023 30.21 852 25.16 -16.4 2.5 71 -20.5 -4.8
12:45 1023 30.21 852 25.16 -16.4 2.4 72 -20.4 -4.7
12:50 1023 30.21 852 25.16 -16.6 2 73 -20.4 -4.6
12:55 1023 30.21 852 25.16 -17.1 1.3 75 -20.5 -5
13:00 1023 30.21 852 25.16 -17.1 1.3 74 -20.7 -5.3
13:05 1023 30.21 852 25.16 -17.3 0.8 76 -20.6 -5.2
13:10 1023 30.21 852 25.16 -16.7 2 73 -20.4 -4.7
13:15 1022 30.18 852 25.16 -16.8 1.7 74 -20.5 -4.8
13:20 1022 30.18 852 25.16 -16.4 2.5 71 -20.5 -4.9
13:25 1022 30.18 852 25.16 -15.6 3.8 69 -20 -4.1
13:30 1022 30.18 852 25.16 -15.7 3.8 69 -20.1 -4.2
13:35 1022 30.18 852 25.16 -15.6 4 67 -20.3 -4.6
13:40 1022 30.18 852 25.16 -15 5.1 65 -20.1 -4.3
13:45 1022 30.18 852 25.16 -14.7 5.6 64 -20.1 -4.3
13:50 1022 30.18 852 25.16 -14 6.8 63 -19.6 -3.2
13:55 1022 30.18 852 25.16 -13.3 8.1 62 -19.1 -2.4
14:00 1022 30.18 852 25.16 -13.2 8.3 59 -19.6 -3.4
14:05 1022 30.18 852 25.16 -13.5 7.7 61 -19.5 -3.1
14:10 1022 30.18 852 25.16 -13.4 7.8 59 -19.7 -3.5
14:15 1022 30.18 852 25.16 -13.3 8.1 60 -19.5 -3
14:20 1022 30.18 852 25.16 -13 8.6 60 -19.3 -2.8
14:25 1022 30.18 852 25.16 -13.1 8.5 59 -19.6 -3.2
14:30 1022 30.18 852 25.16 -13.5 7.7 63 -19.2 -2.5
14:35 1022 30.18 852 25.16 -13.7 7.4 62 -19.5 -3.1
14:40 1023 30.21 852 25.16 -14.1 6.7 62 -19.9 -3.8
14:45 1022 30.18 852 25.16 -14.6 5.7 63 -20.2 -4.3
14:50 1022 30.18 852 25.16 -13.7 7.4 60 -19.8 -3.7
14:55 1022 30.18 852 25.16 -13.8 7.2 62 -19.7 -3.4
15:00 1022 30.18 852 25.16 -14.1 6.7 63 -19.6 -3.3
15:05 1023 30.21 852 25.16 -13.9 7.1 60 -20 -4
15:10 1023 30.21 852 25.16 -14.5 5.9 66 -19.6 -3.2
15:15 1023 30.21 852 25.16 -14.7 5.5 64 -20.2 -4.3
15:20 1023 30.21 852 25.16 -14.3 6.4 61 -20.2 -4.3
15:25 1023 30.21 852 25.16 -15.3 4.4 66 -20.3 -4.6
15:30 1023 30.21 852 25.16 -15.6 3.9 68 -20.3 -4.5
15:35 1023 30.21 852 25.16 -14.8 5.4 65 -19.9 -3.8
15:40 1023 30.21 852 25.16 -14.2 6.4 63 -19.7 -3.5
15:45 1023 30.21 852 25.16 -14.6 5.8 66 -19.7 -3.4
15:50 1023 30.21 852 25.16 -14.7 5.5 65 -20 -4
15:55 1023 30.21 852 25.16 -15 5 65 -20.2 -4.3
16:00 1023 30.21 852 25.16 -14.7 5.6 66 -19.6 -3.4
16:05 1023 30.21 852 25.16 -14.9 5.1 66 -19.9 -3.9
16:10 1023 30.21 852 25.16 -14.3 6.2 62 -20.2 -4.3
16:15 1023 30.21 852 25.16 -14.7 5.6 65 -19.8 -3.7
16:20 1023 30.21 852 25.16 -15.4 4.3 67 -20.1 -4.2
16:25 1023 30.21 852 25.16 -15.1 4.8 67 -19.9 -3.8
16:30 1023 30.21 852 25.16 -15.5 4 67 -20.3 -4.6
16:35 1023 30.21 852 25.16 -16.3 2.7 73 -20.1 -4.2
16:40 1023 30.21 852 25.16 -16.4 2.5 72 -20.4 -4.8
16:45 1023 30.21 852 25.16 -16.8 1.9 74 -20.4 -4.7
16:50 1023 30.21 852 25.16 -16.7 1.9 73 -20.5 -4.9
16:55 1023 30.21 852 25.16 -16.8 1.8 75 -20.2 -4.4
17:00 1023 30.21 852 25.16 -17 1.4 75 -20.4 -4.8
17:05 1023 30.21 853 25.19 -17.1 1.2 76 -20.4 -4.7
17:10 1023 30.21 853 25.19 -17.4 0.6 77 -20.5 -4.9
17:15 1023 30.21 853 25.19 -17.7 0.2 77 -20.7 -5.3
17:20 1023 30.21 853 25.19 -18.2 -0.8 79 -21 -5.8
17:25 1023 30.21 853 25.19 -18.5 -1.3 82 -20.8 -5.5
17:30 1023 30.21 853 25.19 -18.1 -0.6 80 -20.8 -5.4
17:35 1023 30.21 853 25.19 -17.9 -0.3 78 -20.8 -5.5
17:40 1024 30.24 853 25.19 -18.1 -0.5 79 -20.9 -5.5
17:45 1024 30.24 853 25.19 -18.2 -0.8 82 -20.6 -5.1
17:50 1024 30.24 853 25.19 -18.2 -0.7 81 -20.7 -5.2
17:55 1024 30.24 853 25.19 -18.3 -0.9 82 -20.7 -5.2
18:00 1024 30.24 853 25.19 -18.5 -1.2 82 -20.9 -5.5
18:05 1024 30.24 853 25.19 -18.7 -1.6 82 -21 -5.7
18:10 1024 30.24 853 25.19 -18.8 -1.8 83 -21 -5.8
18:15 1024 30.24 853 25.19 -18.6 -1.6 82 -21 -5.8
18:20 1024 30.24 853 25.19 -18.6 -1.5 85 -20.6 -5.1
18:25 1024 30.24 853 25.19 -18.3 -0.9 82 -20.6 -5.1
18:30 1024 30.24 853 25.19 -18 -0.5 80 -20.6 -5.1
18:35 1024 30.24 853 25.19 -18 -0.3 80 -20.6 -5.1
18:40 1024 30.24 853 25.19 -18.1 -0.6 81 -20.7 -5.2
18:45 1024 30.24 853 25.19 -18.2 -0.7 79 -20.9 -5.7
18:50 1024 30.24 853 25.19 -18.5 -1.2 81 -20.9 -5.6
18:55 1024 30.24 853 25.19 -18.4 -1.1 82 -20.8 -5.4
19:00 1024 30.24 853 25.19 -18.4 -1.1 82 -20.8 -5.4
19:05 1024 30.24 853 25.19 -18.3 -1 82 -20.7 -5.2
19:10 1024 30.24 853 25.19 -18.2 -0.8 82 -20.5 -5
19:15 1024 30.24 853 25.19 -18.1 -0.6 83 -20.4 -4.7
19:20 1024 30.24 853 25.19 -18.2 -0.7 82 -20.6 -5
19:25 1024 30.24 853 25.19 -18.2 -0.8 83 -20.5 -4.9
19:30 1024 30.24 853 25.19 -18 -0.4 81 -20.5 -4.9
19:35 1024 30.24 853 25.19 -17.8 -0 80 -20.4 -4.7
19:40 1024 30.24 853 25.19 -17.9 -0.2 79 -20.7 -5.2
19:45 1024 30.24 853 25.19 -18.1 -0.5 81 -20.6 -5.1
19:50 1024 30.24 853 25.19 -18.2 -0.7 82 -20.6 -5.1
19:55 1024 30.24 853 25.19 -18.2 -0.7 82 -20.6 -5.1
20:00 1024 30.24 853 25.19 -18.1 -0.7 82 -20.5 -4.9
20:05 1024 30.24 853 25.19 -18.2 -0.8 82 -20.6 -5
20:10 1024 30.24 853 25.19 -18.4 -1.1 82 -20.8 -5.4
20:15 1024 30.24 853 25.19 -18.8 -1.8 83 -20.9 -5.7
20:20 1024 30.24 853 25.19 -18.6 -1.5 83 -20.8 -5.5
20:25 1024 30.24 853 25.19 -18.7 -1.6 83 -20.8 -5.5
20:30 1024 30.24 853 25.19 -18.7 -1.7 83 -21 -5.8
20:35 1024 30.24 853 25.19 -18.8 -1.9 83 -21 -5.9
20:40 1024 30.24 853 25.19 -18.9 -2.1 84 -21 -5.8
20:45 1024 30.24 853 25.19 -19.1 -2.4 85 -21.1 -6
20:50 1024 30.24 853 25.19 -19.2 -2.6 85 -21.1 -6
20:55 1024 30.24 853 25.19 -19.4 -2.8 85 -21.2 -6.2
21:00 1024 30.24 853 25.19 -19.5 -3 85 -21.3 -6.4
21:05 1024 30.24 853 25.19 -19.6 -3.3 85 -21.5 -6.6
21:10 1024 30.24 853 25.19 -19.7 -3.5 86 -21.5 -6.7
21:15 1024 30.24 853 25.19 -19.5 -3.2 87 -21.2 -6.2
21:20 1024 30.24 853 25.19 -19.4 -3 86 -21.3 -6.3
21:25 1024 30.24 853 25.19 -19.7 -3.4 86 -21.4 -6.6
21:30 1024 30.24 853 25.19 -19.9 -3.9 87 -21.5 -6.7
21:35 1024 30.24 853 25.19 -20 -4 87 -21.6 -6.9
21:40 1024 30.24 854 25.22 -20.1 -4.2 88 -21.7 -7
21:45 1024 30.24 854 25.22 -20.2 -4.3 88 -21.7 -7.1
21:50 1024 30.24 854 25.22 -20 -4.1 87 -21.6 -7
21:55 1024 30.24 854 25.22 -20 -4 87 -21.6 -6.9
22:00 1025 30.27 854 25.22 -20 -4.1 85 -21.9 -7.4
22:05 1025 30.27 854 25.22 -20.4 -4.6 88 -21.9 -7.4
22:10 1025 30.27 854 25.22 -20.3 -4.5 88 -21.8 -7.3
22:15 1025 30.27 854 25.22 -20.2 -4.4 87 -21.9 -7.4
22:20 1025 30.27 854 25.22 -20.3 -4.5 88 -21.8 -7.2
22:25 1025 30.27 854 25.22 -20.3 -4.6 84 -22.4 -8.3
22:30 1025 30.27 854 25.22 -20.4 -4.8 84 -22.4 -8.3
22:35 1025 30.27 854 25.22 -20.4 -4.7 86 -22.2 -7.9
22:40 1025 30.27 854 25.22 -20.2 -4.4 85 -22.2 -8
22:45 1025 30.27 854 25.22 -20.3 -4.6 83 -22.5 -8.6
22:50 1025 30.27 854 25.22 -20.6 -5 85 -22.4 -8.3
22:55 1025 30.27 854 25.22 -20.7 -5.2 84 -22.7 -8.8
23:00 1025 30.27 854 25.22 -21.1 -5.9 87 -22.7 -8.9
23:05 1025 30.27 854 25.22 -21.1 -5.9 88 -22.6 -8.7
23:10 1025 30.27 854 25.22 -20.7 -5.2 88 -22.2 -7.9
23:15 1025 30.27 854 25.22 -20.6 -5 87 -22.2 -8
23:20 1025 30.27 854 25.22 -20.4 -4.7 85 -22.3 -8.2
23:25 1025 30.27 854 25.22 -20.7 -5.3 87 -22.4 -8.4
23:30 1025 30.27 854 25.22 -20.7 -5.3 84 -22.8 -9
23:35 1025 30.27 854 25.22 -20.8 -5.4 85 -22.7 -8.9
23:40 1025 30.27 854 25.22 -20.8 -5.4 84 -22.8 -9.1
23:45 1025 30.27 854 25.22 -20.8 -5.4 84 -22.8 -9.1
23:50 1025 30.27 854 25.22 -20.4 -4.6 84 -22.4 -8.3
23:55 1025 30.27 854 25.22 -20.4 -4.6 83 -22.6 -8.6
24:00 1025 30.27 854 25.22 -20.7 -5.3 83 -23 -9.3